sensor_id;sensor_type;location;lat;lon;timestamp;P1;durP1;ratioP1;P2;durP2;ratioP2
62457;SDS011;48509;52.122;5.250;2023-06-22T00:00:02;8.5;;;5.8;;
62457;SDS011;48509;52.122;5.250;2023-06-22T00:04:51;7.1;;;6.1;;
62457;SDS011;48509;52.122;5.250;2023-06-22T00:06:27;6.3;;;5.7;;
62457;SDS011;48509;52.122;5.250;2023-06-22T00:08:03;7.6;;;6.2;;
62457;SDS011;48509;52.122;5.250;2023-06-22T00:11:16;7.2;;;6.2;;
62457;SDS011;48509;52.122;5.250;2023-06-22T00:12:52;7.2;;;6.5;;
62457;SDS011;48509;52.122;5.250;2023-06-22T00:14:28;7.5;;;6.7;;
62457;SDS011;48509;52.122;5.250;2023-06-22T00:17:41;8.9;;;7.0;;
62457;SDS011;48509;52.122;5.250;2023-06-22T00:19:17;8.81;;;6.5;;
62457;SDS011;48509;52.122;5.250;2023-06-22T00:20:54;7.7;;;6.7;;
62457;SDS011;48509;52.122;5.250;2023-06-22T00:24:06;11.1;;;6.4;;
62457;SDS011;48509;52.122;5.250;2023-06-22T00:25:43;7.9;;;7.1;;
62457;SDS011;48509;52.122;5.250;2023-06-22T00:27:19;9.71;;;6.7;;
62457;SDS011;48509;52.122;5.250;2023-06-22T00:28:55;8.1;;;7.0;;
62457;SDS011;48509;52.122;5.250;2023-06-22T00:32:08;8.81;;;6.9;;
62457;SDS011;48509;52.122;5.250;2023-06-22T00:33:44;8.4;;;6.9;;
62457;SDS011;48509;52.122;5.250;2023-06-22T00:35:21;9.5;;;7.7;;
62457;SDS011;48509;52.122;5.250;2023-06-22T00:38:33;10.6;;;7.1;;
62457;SDS011;48509;52.122;5.250;2023-06-22T00:40:09;9.6;;;7.0;;
62457;SDS011;48509;52.122;5.250;2023-06-22T00:41:46;9.0;;;6.8;;
62457;SDS011;48509;52.122;5.250;2023-06-22T00:44:59;9.5;;;6.6;;
62457;SDS011;48509;52.122;5.250;2023-06-22T00:46:35;7.4;;;6.6;;
62457;SDS011;48509;52.122;5.250;2023-06-22T00:48:11;10.9;;;7.3;;
62457;SDS011;48509;52.122;5.250;2023-06-22T00:49:49;8.4;;;7.1;;
62457;SDS011;48509;52.122;5.250;2023-06-22T00:53:04;8.31;;;6.9;;
62457;SDS011;48509;52.122;5.250;2023-06-22T00:54:43;9.4;;;8.1;;
62457;SDS011;48509;52.122;5.250;2023-06-22T00:56:20;8.81;;;7.3;;
62457;SDS011;48509;52.122;5.250;2023-06-22T00:59:32;8.81;;;7.3;;
62457;SDS011;48509;52.122;5.250;2023-06-22T01:01:08;9.6;;;8.2;;
62457;SDS011;48509;52.122;5.250;2023-06-22T01:02:45;9.81;;;7.5;;
62457;SDS011;48509;52.122;5.250;2023-06-22T01:06:10;8.81;;;7.9;;
62457;SDS011;48509;52.122;5.250;2023-06-22T01:07:57;11.1;;;9.21;;
62457;SDS011;48509;52.122;5.250;2023-06-22T01:09:43;11.2;;;8.2;;
62457;SDS011;48509;52.122;5.250;2023-06-22T01:11:28;9.81;;;8.31;;
62457;SDS011;48509;52.122;5.250;2023-06-22T01:13:15;10.5;;;8.5;;
62457;SDS011;48509;52.122;5.250;2023-06-22T01:15:01;11.1;;;9.31;;
62457;SDS011;48509;52.122;5.250;2023-06-22T01:18:23;11.1;;;10.0;;
62457;SDS011;48509;52.122;5.250;2023-06-22T01:20:05;15.8;;;11.8;;
62457;SDS011;48509;52.122;5.250;2023-06-22T01:21:44;10.8;;;9.71;;
62457;SDS011;48509;52.122;5.250;2023-06-22T01:23:26;11.3;;;10.1;;
62457;SDS011;48509;52.122;5.250;2023-06-22T01:26:52;14.5;;;10.21;;
62457;SDS011;48509;52.122;5.250;2023-06-22T01:28:43;13.9;;;11.5;;
62457;SDS011;48509;52.122;5.250;2023-06-22T01:30:21;13.2;;;11.0;;
62457;SDS011;48509;52.122;5.250;2023-06-22T01:32:00;13.4;;;10.5;;
62457;SDS011;48509;52.122;5.250;2023-06-22T01:35:19;12.2;;;10.21;;
62457;SDS011;48509;52.122;5.250;2023-06-22T01:36:57;15.5;;;10.5;;
62457;SDS011;48509;52.122;5.250;2023-06-22T01:38:35;13.4;;;11.2;;
62457;SDS011;48509;52.122;5.250;2023-06-22T01:40:13;14.9;;;11.7;;
62457;SDS011;48509;52.122;5.250;2023-06-22T01:43:29;13.6;;;10.0;;
62457;SDS011;48509;52.122;5.250;2023-06-22T01:45:06;14.8;;;10.4;;
62457;SDS011;48509;52.122;5.250;2023-06-22T01:46:43;15.0;;;12.3;;
62457;SDS011;48509;52.122;5.250;2023-06-22T01:49:57;16.11;;;11.6;;
62457;SDS011;48509;52.122;5.250;2023-06-22T01:51:34;17.41;;;13.0;;
62457;SDS011;48509;52.122;5.250;2023-06-22T01:53:10;14.2;;;12.8;;
62457;SDS011;48509;52.122;5.250;2023-06-22T01:54:46;12.9;;;11.4;;
62457;SDS011;48509;52.122;5.250;2023-06-22T01:58:01;15.0;;;12.9;;
62457;SDS011;48509;52.122;5.250;2023-06-22T01:59:39;14.5;;;11.6;;
62457;SDS011;48509;52.122;5.250;2023-06-22T02:01:24;15.0;;;11.7;;
62457;SDS011;48509;52.122;5.250;2023-06-22T02:03:08;16.3;;;13.2;;
62457;SDS011;48509;52.122;5.250;2023-06-22T02:06:34;16.3;;;12.7;;
62457;SDS011;48509;52.122;5.250;2023-06-22T02:08:15;17.0;;;12.9;;
62457;SDS011;48509;52.122;5.250;2023-06-22T02:09:55;14.1;;;12.1;;
62457;SDS011;48509;52.122;5.250;2023-06-22T02:11:35;17.2;;;13.2;;
62457;SDS011;48509;52.122;5.250;2023-06-22T02:14:51;13.5;;;11.0;;
62457;SDS011;48509;52.122;5.250;2023-06-22T02:16:28;16.4;;;12.5;;
62457;SDS011;48509;52.122;5.250;2023-06-22T02:18:07;17.41;;;12.6;;
62457;SDS011;48509;52.122;5.250;2023-06-22T02:21:20;14.6;;;11.8;;
62457;SDS011;48509;52.122;5.250;2023-06-22T02:22:57;15.1;;;11.4;;
62457;SDS011;48509;52.122;5.250;2023-06-22T02:24:33;15.5;;;12.9;;
62457;SDS011;48509;52.122;5.250;2023-06-22T02:26:09;13.9;;;12.4;;
62457;SDS011;48509;52.122;5.250;2023-06-22T02:29:22;16.0;;;13.9;;
62457;SDS011;48509;52.122;5.250;2023-06-22T02:30:58;20.11;;;14.6;;
62457;SDS011;48509;52.122;5.250;2023-06-22T02:32:34;17.3;;;14.5;;
62457;SDS011;48509;52.122;5.250;2023-06-22T02:35:47;20.41;;;16.0;;
62457;SDS011;48509;52.122;5.250;2023-06-22T02:37:24;21.9;;;16.7;;
62457;SDS011;48509;52.122;5.250;2023-06-22T02:39:00;20.6;;;16.5;;
62457;SDS011;48509;52.122;5.250;2023-06-22T02:42:12;18.41;;;15.3;;
62457;SDS011;48509;52.122;5.250;2023-06-22T02:43:48;18.2;;;15.3;;
62457;SDS011;48509;52.122;5.250;2023-06-22T02:45:24;19.11;;;16.3;;
62457;SDS011;48509;52.122;5.250;2023-06-22T02:47:01;18.0;;;16.11;;
62457;SDS011;48509;52.122;5.250;2023-06-22T02:50:15;17.61;;;15.7;;
62457;SDS011;48509;52.122;5.250;2023-06-22T02:51:51;20.6;;;17.0;;
62457;SDS011;48509;52.122;5.250;2023-06-22T02:53:27;15.4;;;13.8;;
62457;SDS011;48509;52.122;5.250;2023-06-22T02:56:42;23.2;;;17.41;;
62457;SDS011;48509;52.122;5.250;2023-06-22T02:58:18;20.3;;;15.7;;
62457;SDS011;48509;52.122;5.250;2023-06-22T02:59:54;21.9;;;16.8;;
62457;SDS011;48509;52.122;5.250;2023-06-22T03:03:06;19.61;;;17.11;;
62457;SDS011;48509;52.122;5.250;2023-06-22T03:04:43;19.7;;;16.2;;
62457;SDS011;48509;52.122;5.250;2023-06-22T03:06:20;21.8;;;16.9;;
62457;SDS011;48509;52.122;5.250;2023-06-22T03:07:56;18.61;;;16.61;;
62457;SDS011;48509;52.122;5.250;2023-06-22T03:11:08;20.6;;;18.41;;
62457;SDS011;48509;52.122;5.250;2023-06-22T03:12:44;21.4;;;18.11;;
62457;SDS011;48509;52.122;5.250;2023-06-22T03:14:23;26.3;;;18.5;;
62457;SDS011;48509;52.122;5.250;2023-06-22T03:17:35;22.9;;;18.7;;
62457;SDS011;48509;52.122;5.250;2023-06-22T03:19:12;20.41;;;18.2;;
62457;SDS011;48509;52.122;5.250;2023-06-22T03:20:48;25.5;;;20.41;;
62457;SDS011;48509;52.122;5.250;2023-06-22T03:24:01;24.2;;;20.8;;
62457;SDS011;48509;52.122;5.250;2023-06-22T03:25:37;25.2;;;18.5;;
62457;SDS011;48509;52.122;5.250;2023-06-22T03:27:13;25.2;;;21.4;;
62457;SDS011;48509;52.122;5.250;2023-06-22T03:28:49;23.1;;;19.91;;
62457;SDS011;48509;52.122;5.250;2023-06-22T03:32:02;23.4;;;19.2;;
62457;SDS011;48509;52.122;5.250;2023-06-22T03:33:38;21.7;;;18.91;;
62457;SDS011;48509;52.122;5.250;2023-06-22T03:35:14;22.0;;;16.61;;
62457;SDS011;48509;52.122;5.250;2023-06-22T03:38:26;27.1;;;19.7;;
62457;SDS011;48509;52.122;5.250;2023-06-22T03:40:03;25.0;;;20.2;;
62457;SDS011;48509;52.122;5.250;2023-06-22T03:41:40;24.8;;;19.7;;
62457;SDS011;48509;52.122;5.250;2023-06-22T03:44:52;33.3;;;21.3;;
62457;SDS011;48509;52.122;5.250;2023-06-22T03:46:28;23.5;;;20.41;;
62457;SDS011;48509;52.122;5.250;2023-06-22T03:48:04;23.2;;;19.8;;
62457;SDS011;48509;52.122;5.250;2023-06-22T03:51:17;25.8;;;21.3;;
62457;SDS011;48509;52.122;5.250;2023-06-22T03:52:53;25.4;;;21.8;;
62457;SDS011;48509;52.122;5.250;2023-06-22T03:54:29;27.6;;;21.3;;
62457;SDS011;48509;52.122;5.250;2023-06-22T03:56:06;28.6;;;21.9;;
62457;SDS011;48509;52.122;5.250;2023-06-22T03:59:19;26.6;;;22.6;;
62457;SDS011;48509;52.122;5.250;2023-06-22T04:00:55;26.9;;;22.6;;
62457;SDS011;48509;52.122;5.250;2023-06-22T04:02:31;28.8;;;22.8;;
62457;SDS011;48509;52.122;5.250;2023-06-22T04:07:20;26.5;;;23.6;;
62457;SDS011;48509;52.122;5.250;2023-06-22T04:08:56;26.7;;;22.9;;
62457;SDS011;48509;52.122;5.250;2023-06-22T04:12:09;32.6;;;22.6;;
62457;SDS011;48509;52.122;5.250;2023-06-22T04:13:45;25.0;;;22.3;;
62457;SDS011;48509;52.122;5.250;2023-06-22T04:15:21;29.8;;;24.3;;
62457;SDS011;48509;52.122;5.250;2023-06-22T04:16:57;29.1;;;24.2;;
62457;SDS011;48509;52.122;5.250;2023-06-22T04:20:10;28.6;;;24.5;;
62457;SDS011;48509;52.122;5.250;2023-06-22T04:21:46;27.2;;;21.7;;
62457;SDS011;48509;52.122;5.250;2023-06-22T04:23:22;23.2;;;20.6;;
62457;SDS011;48509;52.122;5.250;2023-06-22T04:26:34;26.2;;;22.9;;
62457;SDS011;48509;52.122;5.250;2023-06-22T04:28:11;28.0;;;22.4;;
62457;SDS011;48509;52.122;5.250;2023-06-22T04:29:47;27.3;;;23.9;;
62457;SDS011;48509;52.122;5.250;2023-06-22T04:32:59;28.4;;;23.0;;
62457;SDS011;48509;52.122;5.250;2023-06-22T04:34:35;25.4;;;21.1;;
62457;SDS011;48509;52.122;5.250;2023-06-22T04:36:11;24.9;;;22.3;;
62457;SDS011;48509;52.122;5.250;2023-06-22T04:39:24;26.3;;;22.4;;
62457;SDS011;48509;52.122;5.250;2023-06-22T04:41:00;25.3;;;20.9;;
62457;SDS011;48509;52.122;5.250;2023-06-22T04:42:37;29.8;;;21.8;;
62457;SDS011;48509;52.122;5.250;2023-06-22T04:44:15;23.6;;;21.1;;
62457;SDS011;48509;52.122;5.250;2023-06-22T04:47:30;23.9;;;20.6;;
62457;SDS011;48509;52.122;5.250;2023-06-22T04:49:06;23.8;;;20.41;;
62457;SDS011;48509;52.122;5.250;2023-06-22T04:50:43;26.8;;;22.8;;
62457;SDS011;48509;52.122;5.250;2023-06-22T04:53:55;24.6;;;20.8;;
62457;SDS011;48509;52.122;5.250;2023-06-22T04:55:32;22.8;;;20.0;;
62457;SDS011;48509;52.122;5.250;2023-06-22T04:57:08;26.0;;;21.5;;
62457;SDS011;48509;52.122;5.250;2023-06-22T04:58:44;26.7;;;22.4;;
62457;SDS011;48509;52.122;5.250;2023-06-22T05:01:57;25.2;;;21.4;;
62457;SDS011;48509;52.122;5.250;2023-06-22T05:03:33;24.7;;;20.11;;
62457;SDS011;48509;52.122;5.250;2023-06-22T05:05:10;22.0;;;19.61;;
62457;SDS011;48509;52.122;5.250;2023-06-22T05:08:23;21.7;;;19.41;;
62457;SDS011;48509;52.122;5.250;2023-06-22T05:09:59;24.1;;;18.5;;
62457;SDS011;48509;52.122;5.250;2023-06-22T05:11:35;23.1;;;19.7;;
62457;SDS011;48509;52.122;5.250;2023-06-22T05:14:48;23.1;;;18.7;;
62457;SDS011;48509;52.122;5.250;2023-06-22T05:16:24;23.1;;;20.6;;
62457;SDS011;48509;52.122;5.250;2023-06-22T05:18:00;21.1;;;18.8;;
62457;SDS011;48509;52.122;5.250;2023-06-22T05:21:12;22.0;;;18.91;;
62457;SDS011;48509;52.122;5.250;2023-06-22T05:22:48;21.6;;;19.2;;
62457;SDS011;48509;52.122;5.250;2023-06-22T05:24:24;21.2;;;18.91;;
62457;SDS011;48509;52.122;5.250;2023-06-22T05:26:01;22.8;;;18.2;;
62457;SDS011;48509;52.122;5.250;2023-06-22T05:29:13;22.4;;;18.0;;
62457;SDS011;48509;52.122;5.250;2023-06-22T05:30:49;23.1;;;18.8;;
62457;SDS011;48509;52.122;5.250;2023-06-22T05:32:25;23.6;;;19.7;;
62457;SDS011;48509;52.122;5.250;2023-06-22T05:35:38;31.5;;;24.9;;
62457;SDS011;48509;52.122;5.250;2023-06-22T05:37:14;37.1;;;30.6;;
62457;SDS011;48509;52.122;5.250;2023-06-22T05:38:50;40.5;;;31.9;;
62457;SDS011;48509;52.122;5.250;2023-06-22T05:42:04;43.9;;;31.0;;
62457;SDS011;48509;52.122;5.250;2023-06-22T05:43:40;33.3;;;29.3;;
62457;SDS011;48509;52.122;5.250;2023-06-22T05:45:17;37.1;;;29.9;;
62457;SDS011;48509;52.122;5.250;2023-06-22T05:46:53;31.3;;;27.1;;
62457;SDS011;48509;52.122;5.250;2023-06-22T05:50:06;36.21;;;27.4;;
62457;SDS011;48509;52.122;5.250;2023-06-22T05:51:43;39.5;;;30.1;;
62457;SDS011;48509;52.122;5.250;2023-06-22T05:53:20;38.81;;;30.1;;
62457;SDS011;48509;52.122;5.250;2023-06-22T05:56:32;46.3;;;36.4;;
62457;SDS011;48509;52.122;5.250;2023-06-22T05:58:08;35.31;;;29.8;;
62457;SDS011;48509;52.122;5.250;2023-06-22T05:59:44;46.1;;;36.71;;
62457;SDS011;48509;52.122;5.250;2023-06-22T06:02:56;40.71;;;34.21;;
62457;SDS011;48509;52.122;5.250;2023-06-22T06:04:33;46.3;;;38.5;;
62457;SDS011;48509;52.122;5.250;2023-06-22T06:06:09;46.7;;;38.21;;
62457;SDS011;48509;52.122;5.250;2023-06-22T06:07:45;46.2;;;37.1;;
62457;SDS011;48509;52.122;5.250;2023-06-22T06:10:58;37.4;;;32.21;;
62457;SDS011;48509;52.122;5.250;2023-06-22T06:12:34;36.21;;;32.21;;
62457;SDS011;48509;52.122;5.250;2023-06-22T06:14:11;31.9;;;25.2;;
62457;SDS011;48509;52.122;5.250;2023-06-22T06:17:23;25.9;;;23.2;;
62457;SDS011;48509;52.122;5.250;2023-06-22T06:18:59;40.71;;;32.9;;
62457;SDS011;48509;52.122;5.250;2023-06-22T06:20:35;38.81;;;32.0;;
62457;SDS011;48509;52.122;5.250;2023-06-22T06:23:47;34.9;;;27.6;;
62457;SDS011;48509;52.122;5.250;2023-06-22T06:25:24;37.6;;;32.5;;
62457;SDS011;48509;52.122;5.250;2023-06-22T06:27:00;44.2;;;37.4;;
62457;SDS011;48509;52.122;5.250;2023-06-22T06:30:13;41.8;;;34.4;;
62457;SDS011;48509;52.122;5.250;2023-06-22T06:31:50;40.6;;;34.4;;
62457;SDS011;48509;52.122;5.250;2023-06-22T06:33:27;42.4;;;35.0;;
62457;SDS011;48509;52.122;5.250;2023-06-22T06:35:03;45.2;;;36.9;;
62457;SDS011;48509;52.122;5.250;2023-06-22T06:38:16;47.7;;;37.9;;
62457;SDS011;48509;52.122;5.250;2023-06-22T06:39:52;50.4;;;37.21;;
62457;SDS011;48509;52.122;5.250;2023-06-22T06:41:29;46.5;;;36.4;;
62457;SDS011;48509;52.122;5.250;2023-06-22T06:44:41;49.3;;;40.4;;
62457;SDS011;48509;52.122;5.250;2023-06-22T06:46:17;45.6;;;37.4;;
62457;SDS011;48509;52.122;5.250;2023-06-22T06:47:53;49.8;;;39.1;;
62457;SDS011;48509;52.122;5.250;2023-06-22T06:51:05;39.31;;;32.8;;
62457;SDS011;48509;52.122;5.250;2023-06-22T06:52:42;47.5;;;35.9;;
62457;SDS011;48509;52.122;5.250;2023-06-22T06:54:18;38.21;;;31.7;;
62457;SDS011;48509;52.122;5.250;2023-06-22T06:55:54;38.81;;;30.2;;
62457;SDS011;48509;52.122;5.250;2023-06-22T06:59:06;40.31;;;31.8;;
62457;SDS011;48509;52.122;5.250;2023-06-22T07:00:42;40.4;;;32.0;;
62457;SDS011;48509;52.122;5.250;2023-06-22T07:02:19;43.8;;;33.0;;
62457;SDS011;48509;52.122;5.250;2023-06-22T07:05:31;39.21;;;33.4;;
62457;SDS011;48509;52.122;5.250;2023-06-22T07:07:07;39.4;;;31.0;;
62457;SDS011;48509;52.122;5.250;2023-06-22T07:08:43;41.5;;;32.3;;
62457;SDS011;48509;52.122;5.250;2023-06-22T07:11:56;39.0;;;29.6;;
62457;SDS011;48509;52.122;5.250;2023-06-22T07:13:32;36.6;;;28.8;;
62457;SDS011;48509;52.122;5.250;2023-06-22T07:15:08;31.8;;;27.4;;
62457;SDS011;48509;52.122;5.250;2023-06-22T07:18:21;37.21;;;29.1;;
62457;SDS011;48509;52.122;5.250;2023-06-22T07:19:57;36.0;;;30.6;;
62457;SDS011;48509;52.122;5.250;2023-06-22T07:21:33;34.31;;;27.3;;
62457;SDS011;48509;52.122;5.250;2023-06-22T07:23:10;34.1;;;27.8;;
62457;SDS011;48509;52.122;5.250;2023-06-22T07:26:22;32.3;;;28.3;;
62457;SDS011;48509;52.122;5.250;2023-06-22T07:27:59;35.21;;;29.4;;
62457;SDS011;48509;52.122;5.250;2023-06-22T07:29:37;32.5;;;27.8;;
62457;SDS011;48509;52.122;5.250;2023-06-22T07:32:50;45.5;;;32.3;;
62457;SDS011;48509;52.122;5.250;2023-06-22T07:34:26;34.0;;;27.5;;
62457;SDS011;48509;52.122;5.250;2023-06-22T07:36:02;37.1;;;28.9;;
62457;SDS011;48509;52.122;5.250;2023-06-22T07:39:15;32.9;;;26.8;;
62457;SDS011;48509;52.122;5.250;2023-06-22T07:40:51;35.0;;;28.9;;
62457;SDS011;48509;52.122;5.250;2023-06-22T07:42:28;30.8;;;24.8;;
62457;SDS011;48509;52.122;5.250;2023-06-22T07:44:04;32.21;;;26.8;;
62457;SDS011;48509;52.122;5.250;2023-06-22T07:47:16;35.31;;;27.7;;
62457;SDS011;48509;52.122;5.250;2023-06-22T07:48:52;29.7;;;25.7;;
62457;SDS011;48509;52.122;5.250;2023-06-22T07:50:28;28.5;;;23.4;;
62457;SDS011;48509;52.122;5.250;2023-06-22T07:53:42;24.6;;;20.8;;
62457;SDS011;48509;52.122;5.250;2023-06-22T07:55:19;31.4;;;22.3;;
62457;SDS011;48509;52.122;5.250;2023-06-22T07:56:55;26.8;;;21.5;;
62457;SDS011;48509;52.122;5.250;2023-06-22T08:00:08;26.5;;;20.41;;
62457;SDS011;48509;52.122;5.250;2023-06-22T08:01:46;22.9;;;18.7;;
62457;SDS011;48509;52.122;5.250;2023-06-22T08:03:22;21.0;;;17.91;;
62457;SDS011;48509;52.122;5.250;2023-06-22T08:04:58;23.6;;;16.8;;
62457;SDS011;48509;52.122;5.250;2023-06-22T08:08:10;25.0;;;18.8;;
62457;SDS011;48509;52.122;5.250;2023-06-22T08:09:47;17.91;;;14.4;;
62457;SDS011;48509;52.122;5.250;2023-06-22T08:11:24;15.9;;;14.0;;
62457;SDS011;48509;52.122;5.250;2023-06-22T08:14:38;16.11;;;12.5;;
62457;SDS011;48509;52.122;5.250;2023-06-22T08:16:14;18.11;;;14.6;;
62457;SDS011;48509;52.122;5.250;2023-06-22T08:17:50;16.3;;;13.3;;
62457;SDS011;48509;52.122;5.250;2023-06-22T08:21:04;15.3;;;12.3;;
62457;SDS011;48509;52.122;5.250;2023-06-22T08:22:40;17.11;;;13.6;;
62457;SDS011;48509;52.122;5.250;2023-06-22T08:24:17;18.3;;;13.4;;
62457;SDS011;48509;52.122;5.250;2023-06-22T08:25:53;19.61;;;16.0;;
62457;SDS011;48509;52.122;5.250;2023-06-22T08:29:05;18.8;;;14.2;;
62457;SDS011;48509;52.122;5.250;2023-06-22T08:30:41;19.41;;;15.7;;
62457;SDS011;48509;52.122;5.250;2023-06-22T08:32:18;21.5;;;16.8;;
62457;SDS011;48509;52.122;5.250;2023-06-22T08:35:30;16.9;;;13.0;;
62457;SDS011;48509;52.122;5.250;2023-06-22T08:37:06;14.6;;;11.8;;
62457;SDS011;48509;52.122;5.250;2023-06-22T08:38:42;17.0;;;11.6;;
62457;SDS011;48509;52.122;5.250;2023-06-22T08:41:56;16.11;;;11.6;;
62457;SDS011;48509;52.122;5.250;2023-06-22T08:43:32;15.2;;;11.6;;
62457;SDS011;48509;52.122;5.250;2023-06-22T08:45:08;11.8;;;10.21;;
62457;SDS011;48509;52.122;5.250;2023-06-22T08:46:45;12.6;;;9.5;;
62457;SDS011;48509;52.122;5.250;2023-06-22T08:49:57;9.81;;;8.1;;
62457;SDS011;48509;52.122;5.250;2023-06-22T08:51:33;14.4;;;8.1;;
62457;SDS011;48509;52.122;5.250;2023-06-22T08:53:10;13.5;;;8.1;;
62457;SDS011;48509;52.122;5.250;2023-06-22T08:56:22;10.7;;;7.3;;
62457;SDS011;48509;52.122;5.250;2023-06-22T08:57:58;11.0;;;7.8;;
62457;SDS011;48509;52.122;5.250;2023-06-22T08:59:34;8.5;;;7.3;;
62457;SDS011;48509;52.122;5.250;2023-06-22T09:02:47;10.9;;;7.7;;
62457;SDS011;48509;52.122;5.250;2023-06-22T09:04:24;12.5;;;8.0;;
62457;SDS011;48509;52.122;5.250;2023-06-22T09:06:00;14.3;;;9.1;;
62457;SDS011;48509;52.122;5.250;2023-06-22T09:09:12;11.3;;;7.2;;
62457;SDS011;48509;52.122;5.250;2023-06-22T09:10:49;12.8;;;8.31;;
62457;SDS011;48509;52.122;5.250;2023-06-22T09:12:25;11.0;;;7.0;;
62457;SDS011;48509;52.122;5.250;2023-06-22T09:14:02;7.6;;;6.8;;
62457;SDS011;48509;52.122;5.250;2023-06-22T09:17:14;9.1;;;7.6;;
62457;SDS011;48509;52.122;5.250;2023-06-22T09:18:50;7.9;;;5.9;;
62457;SDS011;48509;52.122;5.250;2023-06-22T09:20:26;6.6;;;5.3;;
62457;SDS011;48509;52.122;5.250;2023-06-22T09:23:39;5.3;;;4.5;;
62457;SDS011;48509;52.122;5.250;2023-06-22T09:25:15;12.4;;;7.9;;
62457;SDS011;48509;52.122;5.250;2023-06-22T09:26:51;11.7;;;8.2;;
62457;SDS011;48509;52.122;5.250;2023-06-22T09:30:04;13.4;;;8.5;;
62457;SDS011;48509;52.122;5.250;2023-06-22T09:31:40;12.1;;;8.5;;
62457;SDS011;48509;52.122;5.250;2023-06-22T09:33:16;9.0;;;7.1;;
62457;SDS011;48509;52.122;5.250;2023-06-22T09:34:53;9.1;;;6.8;;
62457;SDS011;48509;52.122;5.250;2023-06-22T09:38:05;9.71;;;8.0;;
62457;SDS011;48509;52.122;5.250;2023-06-22T09:39:41;7.6;;;6.4;;
62457;SDS011;48509;52.122;5.250;2023-06-22T09:41:17;10.6;;;6.6;;
62457;SDS011;48509;52.122;5.250;2023-06-22T09:44:30;9.71;;;6.9;;
62457;SDS011;48509;52.122;5.250;2023-06-22T09:46:06;9.1;;;6.3;;
62457;SDS011;48509;52.122;5.250;2023-06-22T09:47:42;9.21;;;5.9;;
62457;SDS011;48509;52.122;5.250;2023-06-22T09:50:54;17.2;;;6.3;;
62457;SDS011;48509;52.122;5.250;2023-06-22T09:52:30;9.6;;;7.4;;
62457;SDS011;48509;52.122;5.250;2023-06-22T09:54:07;6.8;;;5.8;;
62457;SDS011;48509;52.122;5.250;2023-06-22T09:57:19;8.0;;;5.9;;
62457;SDS011;48509;52.122;5.250;2023-06-22T09:58:55;6.5;;;5.0;;
62457;SDS011;48509;52.122;5.250;2023-06-22T10:00:31;6.5;;;5.0;;
62457;SDS011;48509;52.122;5.250;2023-06-22T10:02:08;8.5;;;6.8;;
62457;SDS011;48509;52.122;5.250;2023-06-22T10:05:21;7.9;;;5.3;;
62457;SDS011;48509;52.122;5.250;2023-06-22T10:06:57;6.6;;;6.0;;
62457;SDS011;48509;52.122;5.250;2023-06-22T10:08:33;7.5;;;6.2;;
62457;SDS011;48509;52.122;5.250;2023-06-22T10:11:46;6.7;;;5.7;;
62457;SDS011;48509;52.122;5.250;2023-06-22T10:13:22;7.7;;;5.0;;
62457;SDS011;48509;52.122;5.250;2023-06-22T10:14:58;11.1;;;4.5;;
62457;SDS011;48509;52.122;5.250;2023-06-22T10:18:12;6.7;;;4.7;;
62457;SDS011;48509;52.122;5.250;2023-06-22T10:19:48;5.8;;;4.7;;
62457;SDS011;48509;52.122;5.250;2023-06-22T10:21:24;6.9;;;4.7;;
62457;SDS011;48509;52.122;5.250;2023-06-22T10:23:00;7.7;;;6.8;;
62457;SDS011;48509;52.122;5.250;2023-06-22T10:26:12;10.4;;;6.4;;
62457;SDS011;48509;52.122;5.250;2023-06-22T10:27:49;9.31;;;6.0;;
62457;SDS011;48509;52.122;5.250;2023-06-22T10:29:25;9.31;;;7.2;;
62457;SDS011;48509;52.122;5.250;2023-06-22T10:32:37;7.4;;;6.7;;
62457;SDS011;48509;52.122;5.250;2023-06-22T10:34:14;12.6;;;8.0;;
62457;SDS011;48509;52.122;5.250;2023-06-22T10:35:50;6.2;;;5.6;;
62457;SDS011;48509;52.122;5.250;2023-06-22T10:39:03;9.31;;;7.3;;
62457;SDS011;48509;52.122;5.250;2023-06-22T10:40:39;12.8;;;7.2;;
62457;SDS011;48509;52.122;5.250;2023-06-22T10:42:15;10.8;;;7.5;;
62457;SDS011;48509;52.122;5.250;2023-06-22T10:45:27;10.7;;;8.81;;
62457;SDS011;48509;52.122;5.250;2023-06-22T10:47:04;10.6;;;7.8;;
62457;SDS011;48509;52.122;5.250;2023-06-22T10:48:41;7.3;;;6.2;;
62457;SDS011;48509;52.122;5.250;2023-06-22T10:50:17;11.0;;;8.9;;
62457;SDS011;48509;52.122;5.250;2023-06-22T10:53:30;11.4;;;7.5;;
62457;SDS011;48509;52.122;5.250;2023-06-22T10:55:07;8.71;;;6.5;;
62457;SDS011;48509;52.122;5.250;2023-06-22T10:56:44;9.4;;;6.0;;
62457;SDS011;48509;52.122;5.250;2023-06-22T10:59:57;5.6;;;5.11;;
62457;SDS011;48509;52.122;5.250;2023-06-22T11:01:33;11.0;;;6.8;;
62457;SDS011;48509;52.122;5.250;2023-06-22T11:03:09;7.5;;;6.0;;
62457;SDS011;48509;52.122;5.250;2023-06-22T11:06:21;15.7;;;9.9;;
62457;SDS011;48509;52.122;5.250;2023-06-22T11:07:57;10.7;;;7.9;;
62457;SDS011;48509;52.122;5.250;2023-06-22T11:09:34;11.7;;;8.0;;
62457;SDS011;48509;52.122;5.250;2023-06-22T11:11:10;11.5;;;8.5;;
62457;SDS011;48509;52.122;5.250;2023-06-22T11:14:22;12.7;;;10.1;;
62457;SDS011;48509;52.122;5.250;2023-06-22T11:15:58;12.3;;;9.31;;
62457;SDS011;48509;52.122;5.250;2023-06-22T11:17:35;12.2;;;9.0;;
62457;SDS011;48509;52.122;5.250;2023-06-22T11:20:48;9.31;;;8.1;;
62457;SDS011;48509;52.122;5.250;2023-06-22T11:22:24;11.0;;;8.6;;
62457;SDS011;48509;52.122;5.250;2023-06-22T11:24:00;11.7;;;9.21;;
62457;SDS011;48509;52.122;5.250;2023-06-22T11:27:12;9.81;;;8.81;;
62457;SDS011;48509;52.122;5.250;2023-06-22T11:28:48;10.7;;;8.71;;
62457;SDS011;48509;52.122;5.250;2023-06-22T11:30:24;13.9;;;10.3;;
62457;SDS011;48509;52.122;5.250;2023-06-22T11:33:37;12.0;;;10.0;;
62457;SDS011;48509;52.122;5.250;2023-06-22T11:35:13;16.7;;;11.1;;
62457;SDS011;48509;52.122;5.250;2023-06-22T11:36:49;9.4;;;8.1;;
62457;SDS011;48509;52.122;5.250;2023-06-22T11:38:25;9.5;;;8.4;;
62457;SDS011;48509;52.122;5.250;2023-06-22T11:41:39;10.8;;;9.71;;
62457;SDS011;48509;52.122;5.250;2023-06-22T11:43:15;7.9;;;6.3;;
62457;SDS011;48509;52.122;5.250;2023-06-22T11:44:51;9.21;;;7.5;;
62457;SDS011;48509;52.122;5.250;2023-06-22T11:48:04;10.7;;;7.9;;
62457;SDS011;48509;52.122;5.250;2023-06-22T11:49:40;9.4;;;7.4;;
62457;SDS011;48509;52.122;5.250;2023-06-22T11:51:17;11.1;;;6.9;;
62457;SDS011;48509;52.122;5.250;2023-06-22T11:54:29;13.2;;;6.9;;
62457;SDS011;48509;52.122;5.250;2023-06-22T11:56:05;8.0;;;6.1;;
62457;SDS011;48509;52.122;5.250;2023-06-22T11:57:52;8.31;;;6.2;;
62457;SDS011;48509;52.122;5.250;2023-06-22T11:59:30;9.1;;;6.9;;
62457;SDS011;48509;52.122;5.250;2023-06-22T12:02:42;9.21;;;6.6;;
62457;SDS011;48509;52.122;5.250;2023-06-22T12:04:18;11.5;;;9.6;;
62457;SDS011;48509;52.122;5.250;2023-06-22T12:05:54;10.1;;;7.5;;
62457;SDS011;48509;52.122;5.250;2023-06-22T12:09:07;14.4;;;10.8;;
62457;SDS011;48509;52.122;5.250;2023-06-22T12:10:44;13.6;;;10.3;;
62457;SDS011;48509;52.122;5.250;2023-06-22T12:12:20;13.6;;;8.71;;
62457;SDS011;48509;52.122;5.250;2023-06-22T12:13:56;10.5;;;8.1;;
62457;SDS011;48509;52.122;5.250;2023-06-22T12:17:08;10.4;;;8.4;;
62457;SDS011;48509;52.122;5.250;2023-06-22T12:18:44;13.7;;;10.4;;
62457;SDS011;48509;52.122;5.250;2023-06-22T12:20:21;12.6;;;9.31;;
62457;SDS011;48509;52.122;5.250;2023-06-22T12:23:33;11.2;;;8.1;;
62457;SDS011;48509;52.122;5.250;2023-06-22T12:25:09;15.0;;;8.9;;
62457;SDS011;48509;52.122;5.250;2023-06-22T12:26:46;12.5;;;8.1;;
62457;SDS011;48509;52.122;5.250;2023-06-22T12:29:59;13.1;;;9.31;;
62457;SDS011;48509;52.122;5.250;2023-06-22T12:31:35;14.1;;;10.5;;
62457;SDS011;48509;52.122;5.250;2023-06-22T12:33:11;11.0;;;9.0;;
62457;SDS011;48509;52.122;5.250;2023-06-22T12:34:47;10.1;;;8.2;;
62457;SDS011;48509;52.122;5.250;2023-06-22T12:37:59;14.9;;;9.31;;
62457;SDS011;48509;52.122;5.250;2023-06-22T12:39:36;13.9;;;8.81;;
62457;SDS011;48509;52.122;5.250;2023-06-22T12:41:12;9.5;;;7.7;;
62457;SDS011;48509;52.122;5.250;2023-06-22T12:46:00;13.4;;;8.1;;